Louis Armstrong New Orleans International Airport
KMSY : rendu visible

Aérodrome :











RETROUVEZ-NOUS SUR...

 
LOGIN :

S'inscrire | Disclaimer

   EN    FR    IT 

 









Légende :    VFR   VFR Marginal   IFR   IFR Intensif   IFR Très Intensif
Visi : 
Plafond : 
>= 8 km
>= 3000ft
5 à 8 km
1000 à 3000 ft
1500m à 5 km
500 à 1000 ft
800 à 1500m
200 à 500 ft
< 800m
< 200 ft
Symboles :   Orages  Brouillard  Fortes neiges  Fortes précipitations  Vent > 20 kt






- Altitude de l'aérodrome : 4 ft
- Code IATA : MSY


KMSY - Louis Armstrong New Orleans International

DERNIER METAR :
  • 210053Z 11010KT 10SM FEW250 16/11 A3014 RMK AO2 SLP210 T01610111

METARs EXPIRÉS :
  • 202353Z 09008KT 10SM SCT250 18/11 A3014 RMK AO2 SLP208 T01830111 10233 20172 51002
  • 202253Z 10010KT 10SM BKN250 19/11 A3013 RMK AO2 SLP207 T01940111

TAF KMSY
Valide du 21 à 00h jusqu'au 22 à 06h UTC


202330Z 2100/2206 10005KT P6SM SCT250
FM211600 VRB04KT P6SM FEW030 SCT200
FM211800 15008KT P6SM FEW035 SCT110
FM220200 VRB05KT P6SM SCT070
FM220500 VRB03KT P6SM SCT025 OVC030



MET'MAP, la Météo Aéronautique d'un coup d'oeil ! - Copyright ORBIFLY Décembre 2007 - Disclaimer

ORBIFLY MET'MAP TEAM :

Programmation & Développement : Alexandra Zaïnal
Conception & Développement : Baudouin d'Aumeries
Co-Programmation & Développement : Marc-Olivier Méhu
Soutien technique & logistique : Manuel Goepfert

Contact : metmap@orbifly.com




SOURCES & CREDITS :

   NOAA       Earth
Advisory